Gentilly, Minnesota
Current Conditions -  °F | °C
As of 3:14 AM on Thursday 27 Nov 2014 (Local Time) from KCKN Reporting Station
Clear Clear  
Wind Chill: -11°   Ceiling: Unl
Heat Index: -11°   Visibility: 10mi
Dew Point: -15°   Wind: 0mph
Humidity: 84%   Direction: NA
Pressure: 30.55"   Gusts: NA
Location:  47.8137°N, 96.5605°W
Report Text: KCKN 270914Z AUTO 00000KT 10SM CLR M24/M26 A3055 RMK AO2
Loading
Personal Weather Stations






























Interactive Weather Map New forecast layout! Learn more

10-Day Weather Forecast

Advertisements
Track Severe Weather on mobile